sensor_id;sensor_type;location;lat;lon;timestamp;pressure;altitude;pressure_sealevel;temperature;humidity
41102;BME280;26845;50.190;19.178;2023-07-13T00:00:17;98370.79;;;19.90;84.42
41102;BME280;26845;50.190;19.178;2023-07-13T00:02:44;98375.29;;;19.81;83.68
41102;BME280;26845;50.190;19.178;2023-07-13T00:05:10;98349.79;;;19.75;83.17
41102;BME280;26845;50.190;19.178;2023-07-13T00:07:36;98344.04;;;19.72;83.18
41102;BME280;26845;50.190;19.178;2023-07-13T00:10:03;98360.63;;;19.70;83.15
41102;BME280;26845;50.190;19.178;2023-07-13T00:12:30;98356.50;;;19.64;83.05
41102;BME280;26845;50.190;19.178;2023-07-13T00:14:58;98343.16;;;19.65;83.39
41102;BME280;26845;50.190;19.178;2023-07-13T00:17:24;98331.73;;;19.66;83.44
41102;BME280;26845;50.190;19.178;2023-07-13T00:19:51;98325.63;;;19.66;83.44
41102;BME280;26845;50.190;19.178;2023-07-13T00:22:17;98322.38;;;19.64;83.44
41102;BME280;26845;50.190;19.178;2023-07-13T00:24:44;98334.72;;;19.60;83.62
41102;BME280;26845;50.190;19.178;2023-07-13T00:27:10;98344.16;;;19.47;83.45
41102;BME280;26845;50.190;19.178;2023-07-13T00:29:39;98344.12;;;19.41;83.94
41102;BME280;26845;50.190;19.178;2023-07-13T00:32:08;98347.20;;;19.36;84.25
41102;BME280;26845;50.190;19.178;2023-07-13T00:34:36;98341.88;;;19.35;84.20
41102;BME280;26845;50.190;19.178;2023-07-13T00:37:02;98340.95;;;19.38;84.35
41102;BME280;26845;50.190;19.178;2023-07-13T00:39:32;98323.34;;;19.40;84.58
41102;BME280;26845;50.190;19.178;2023-07-13T00:41:58;98310.86;;;19.40;84.83
41102;BME280;26845;50.190;19.178;2023-07-13T00:44:24;98312.86;;;19.38;84.74
41102;BME280;26845;50.190;19.178;2023-07-13T00:46:50;98309.09;;;19.39;84.82
41102;BME280;26845;50.190;19.178;2023-07-13T00:49:17;98290.94;;;19.44;85.11
41102;BME280;26845;50.190;19.178;2023-07-13T00:51:45;98276.98;;;19.43;85.05
41102;BME280;26845;50.190;19.178;2023-07-13T00:54:14;98260.23;;;19.41;85.23
41102;BME280;26845;50.190;19.178;2023-07-13T00:56:44;98257.30;;;19.38;85.13
41102;BME280;26845;50.190;19.178;2023-07-13T00:59:11;98260.09;;;19.35;85.11
41102;BME280;26845;50.190;19.178;2023-07-13T01:01:37;98267.85;;;19.30;85.21
41102;BME280;26845;50.190;19.178;2023-07-13T01:04:04;98271.23;;;19.28;85.39
41102;BME280;26845;50.190;19.178;2023-07-13T01:06:33;98265.92;;;19.30;85.66
41102;BME280;26845;50.190;19.178;2023-07-13T01:09:00;98265.87;;;19.33;85.65
41102;BME280;26845;50.190;19.178;2023-07-13T01:11:26;98263.31;;;19.35;85.61
41102;BME280;26845;50.190;19.178;2023-07-13T01:13:52;98266.59;;;19.33;85.52
41102;BME280;26845;50.190;19.178;2023-07-13T01:16:22;98265.73;;;19.27;85.57
41102;BME280;26845;50.190;19.178;2023-07-13T01:18:49;98263.73;;;19.28;85.86
41102;BME280;26845;50.190;19.178;2023-07-13T01:21:15;98268.13;;;19.33;86.02
41102;BME280;26845;50.190;19.178;2023-07-13T01:23:41;98267.54;;;19.38;85.96
41102;BME280;26845;50.190;19.178;2023-07-13T01:26:11;98268.14;;;19.44;86.11
41102;BME280;26845;50.190;19.178;2023-07-13T01:28:38;98270.52;;;19.49;86.16
41102;BME280;26845;50.190;19.178;2023-07-13T01:31:05;98277.96;;;19.52;86.10
41102;BME280;26845;50.190;19.178;2023-07-13T01:33:31;98269.84;;;19.53;86.09
41102;BME280;26845;50.190;19.178;2023-07-13T01:35:56;98263.35;;;19.57;86.39
41102;BME280;26845;50.190;19.178;2023-07-13T01:38:27;98271.66;;;19.60;86.31
41102;BME280;26845;50.190;19.178;2023-07-13T01:40:54;98273.92;;;19.61;86.28
41102;BME280;26845;50.190;19.178;2023-07-13T01:43:19;98275.11;;;19.58;86.28
41102;BME280;26845;50.190;19.178;2023-07-13T01:45:46;98282.33;;;19.55;86.32
41102;BME280;26845;50.190;19.178;2023-07-13T01:48:13;98293.95;;;19.48;86.27
41102;BME280;26845;50.190;19.178;2023-07-13T01:50:38;98299.13;;;19.25;86.28
41102;BME280;26845;50.190;19.178;2023-07-13T01:53:04;98296.45;;;19.07;86.51
41102;BME280;26845;50.190;19.178;2023-07-13T01:55:31;98298.83;;;19.05;86.90
41102;BME280;26845;50.190;19.178;2023-07-13T01:57:58;98298.79;;;19.01;87.09
41102;BME280;26845;50.190;19.178;2023-07-13T02:00:24;98305.02;;;18.98;87.37
41102;BME280;26845;50.190;19.178;2023-07-13T02:02:50;98320.23;;;18.85;88.15
41102;BME280;26845;50.190;19.178;2023-07-13T02:05:16;98309.57;;;18.69;87.79
41102;BME280;26845;50.190;19.178;2023-07-13T02:07:43;98299.36;;;18.63;88.12
41102;BME280;26845;50.190;19.178;2023-07-13T02:10:09;98293.20;;;18.59;88.55
41102;BME280;26845;50.190;19.178;2023-07-13T02:12:35;98287.27;;;18.55;88.40
41102;BME280;26845;50.190;19.178;2023-07-13T02:15:01;98285.92;;;18.56;88.58
41102;BME280;26845;50.190;19.178;2023-07-13T02:17:27;98285.26;;;18.61;88.66
41102;BME280;26845;50.190;19.178;2023-07-13T02:20:02;98288.75;;;18.64;88.69
41102;BME280;26845;50.190;19.178;2023-07-13T02:22:29;98288.89;;;18.62;88.74
41102;BME280;26845;50.190;19.178;2023-07-13T02:24:54;98302.47;;;18.55;88.58
41102;BME280;26845;50.190;19.178;2023-07-13T02:27:20;98292.91;;;18.50;88.72
41102;BME280;26845;50.190;19.178;2023-07-13T02:29:46;98281.67;;;18.51;88.93
41102;BME280;26845;50.190;19.178;2023-07-13T02:32:12;98265.09;;;18.56;89.08
41102;BME280;26845;50.190;19.178;2023-07-13T02:34:38;98261.92;;;18.59;89.08
41102;BME280;26845;50.190;19.178;2023-07-13T02:37:03;98259.63;;;18.62;89.17
41102;BME280;26845;50.190;19.178;2023-07-13T02:39:29;98262.36;;;18.63;89.06
41102;BME280;26845;50.190;19.178;2023-07-13T02:41:58;98254.40;;;18.63;89.14
41102;BME280;26845;50.190;19.178;2023-07-13T02:44:24;98242.39;;;18.67;89.23
41102;BME280;26845;50.190;19.178;2023-07-13T02:46:57;98231.64;;;18.70;89.17
41102;BME280;26845;50.190;19.178;2023-07-13T02:49:23;98229.55;;;18.71;89.22
41102;BME280;26845;50.190;19.178;2023-07-13T02:51:52;98230.50;;;18.68;89.14
41102;BME280;26845;50.190;19.178;2023-07-13T02:54:18;98230.30;;;18.64;89.11
41102;BME280;26845;50.190;19.178;2023-07-13T02:56:43;98232.33;;;18.66;89.31
41102;BME280;26845;50.190;19.178;2023-07-13T02:59:09;98231.54;;;18.68;89.46
41102;BME280;26845;50.190;19.178;2023-07-13T03:01:36;98230.23;;;18.72;89.47
41102;BME280;26845;50.190;19.178;2023-07-13T03:04:02;98221.54;;;18.79;89.58
41102;BME280;26845;50.190;19.178;2023-07-13T03:06:28;98219.91;;;18.83;89.49
41102;BME280;26845;50.190;19.178;2023-07-13T03:08:56;98221.39;;;18.86;89.40
41102;BME280;26845;50.190;19.178;2023-07-13T03:11:22;98230.02;;;18.87;89.39
41102;BME280;26845;50.190;19.178;2023-07-13T03:13:49;98235.68;;;18.83;89.19
41102;BME280;26845;50.190;19.178;2023-07-13T03:16:15;98246.79;;;18.78;89.07
41102;BME280;26845;50.190;19.178;2023-07-13T03:18:42;98248.56;;;18.77;89.37
41102;BME280;26845;50.190;19.178;2023-07-13T03:21:08;98252.19;;;18.78;89.41
41102;BME280;26845;50.190;19.178;2023-07-13T03:23:34;98253.10;;;18.79;89.59
41102;BME280;26845;50.190;19.178;2023-07-13T03:26:14;98259.85;;;18.79;89.62
41102;BME280;26845;50.190;19.178;2023-07-13T03:28:43;98261.52;;;18.77;89.70
41102;BME280;26845;50.190;19.178;2023-07-13T03:31:11;98265.60;;;18.76;89.76
41102;BME280;26845;50.190;19.178;2023-07-13T03:33:38;98266.91;;;18.73;89.66
41102;BME280;26845;50.190;19.178;2023-07-13T03:36:07;98257.92;;;18.67;89.65
41102;BME280;26845;50.190;19.178;2023-07-13T03:38:33;98255.59;;;18.68;89.89
41102;BME280;26845;50.190;19.178;2023-07-13T03:41:00;98258.78;;;18.72;90.20
41102;BME280;26845;50.190;19.178;2023-07-13T03:43:26;98261.52;;;18.78;90.43
41102;BME280;26845;50.190;19.178;2023-07-13T03:45:52;98272.00;;;18.80;90.37
41102;BME280;26845;50.190;19.178;2023-07-13T03:48:17;98278.23;;;18.84;90.66
41102;BME280;26845;50.190;19.178;2023-07-13T03:50:42;98286.36;;;18.90;90.79
41102;BME280;26845;50.190;19.178;2023-07-13T03:53:08;98294.15;;;18.96;90.84
41102;BME280;26845;50.190;19.178;2023-07-13T03:55:34;98295.39;;;19.00;90.77
41102;BME280;26845;50.190;19.178;2023-07-13T04:00:44;98302.55;;;19.06;91.29
41102;BME280;26845;50.190;19.178;2023-07-13T04:03:10;98305.87;;;19.09;91.18
41102;BME280;26845;50.190;19.178;2023-07-13T04:05:36;98309.50;;;19.09;91.19
41102;BME280;26845;50.190;19.178;2023-07-13T04:08:01;98310.27;;;19.08;91.17
41102;BME280;26845;50.190;19.178;2023-07-13T04:10:29;98314.45;;;19.07;91.30
41102;BME280;26845;50.190;19.178;2023-07-13T04:12:54;98314.82;;;19.11;91.48
41102;BME280;26845;50.190;19.178;2023-07-13T04:15:20;98320.98;;;19.16;91.65
41102;BME280;26845;50.190;19.178;2023-07-13T04:17:46;98327.06;;;19.19;91.62
41102;BME280;26845;50.190;19.178;2023-07-13T04:20:12;98335.95;;;19.23;91.75
41102;BME280;26845;50.190;19.178;2023-07-13T04:22:38;98340.36;;;19.29;91.66
41102;BME280;26845;50.190;19.178;2023-07-13T04:25:04;98334.58;;;19.28;91.68
41102;BME280;26845;50.190;19.178;2023-07-13T04:27:31;98331.44;;;19.30;91.84
41102;BME280;26845;50.190;19.178;2023-07-13T04:29:57;98333.09;;;19.34;91.77
41102;BME280;26845;50.190;19.178;2023-07-13T04:32:23;98334.33;;;19.36;91.93
41102;BME280;26845;50.190;19.178;2023-07-13T04:34:49;98332.67;;;19.38;91.93
41102;BME280;26845;50.190;19.178;2023-07-13T04:37:19;98326.16;;;19.41;92.20
41102;BME280;26845;50.190;19.178;2023-07-13T04:39:45;98324.89;;;19.43;92.28
41102;BME280;26845;50.190;19.178;2023-07-13T04:42:11;98322.17;;;19.45;92.42
41102;BME280;26845;50.190;19.178;2023-07-13T04:44:37;98315.18;;;19.47;92.45
41102;BME280;26845;50.190;19.178;2023-07-13T04:47:03;98311.54;;;19.52;92.68
41102;BME280;26845;50.190;19.178;2023-07-13T04:49:29;98310.08;;;19.59;92.93
41102;BME280;26845;50.190;19.178;2023-07-13T04:52:03;98312.46;;;19.64;93.02
41102;BME280;26845;50.190;19.178;2023-07-13T04:54:33;98308.89;;;19.69;92.99
41102;BME280;26845;50.190;19.178;2023-07-13T04:57:00;98301.39;;;19.76;93.28
41102;BME280;26845;50.190;19.178;2023-07-13T04:59:27;98295.98;;;19.85;93.32
41102;BME280;26845;50.190;19.178;2023-07-13T05:01:53;98296.29;;;19.96;93.39
41102;BME280;26845;50.190;19.178;2023-07-13T05:04:26;98290.97;;;20.06;93.31
41102;BME280;26845;50.190;19.178;2023-07-13T05:06:55;98288.21;;;20.16;93.37
41102;BME280;26845;50.190;19.178;2023-07-13T05:09:22;98285.45;;;20.26;93.26
41102;BME280;26845;50.190;19.178;2023-07-13T05:11:48;98279.14;;;20.35;93.22
41102;BME280;26845;50.190;19.178;2023-07-13T05:14:13;98279.91;;;20.45;93.13
41102;BME280;26845;50.190;19.178;2023-07-13T05:16:40;98279.83;;;20.57;92.81
41102;BME280;26845;50.190;19.178;2023-07-13T05:19:05;98281.68;;;20.73;92.51
41102;BME280;26845;50.190;19.178;2023-07-13T05:21:30;98284.08;;;20.92;92.33
41102;BME280;26845;50.190;19.178;2023-07-13T05:23:57;98285.02;;;21.02;92.07
41102;BME280;26845;50.190;19.178;2023-07-13T05:26:22;98283.56;;;21.10;91.79
41102;BME280;26845;50.190;19.178;2023-07-13T05:28:47;98285.04;;;21.19;91.81
41102;BME280;26845;50.190;19.178;2023-07-13T05:31:13;98285.71;;;21.31;91.92
41102;BME280;26845;50.190;19.178;2023-07-13T05:33:39;98287.61;;;21.42;91.98
41102;BME280;26845;50.190;19.178;2023-07-13T05:36:04;98293.67;;;21.55;92.04
41102;BME280;26845;50.190;19.178;2023-07-13T05:38:30;98297.73;;;21.68;91.69
41102;BME280;26845;50.190;19.178;2023-07-13T05:40:55;98293.13;;;21.80;91.76
41102;BME280;26845;50.190;19.178;2023-07-13T05:43:21;98290.37;;;21.92;91.79
41102;BME280;26845;50.190;19.178;2023-07-13T05:45:46;98288.17;;;21.97;91.44
41102;BME280;26845;50.190;19.178;2023-07-13T05:48:12;98290.53;;;21.96;91.11
41102;BME280;26845;50.190;19.178;2023-07-13T05:50:40;98289.64;;;22.00;91.21
41102;BME280;26845;50.190;19.178;2023-07-13T05:53:06;98286.88;;;22.14;91.35
41102;BME280;26845;50.190;19.178;2023-07-13T05:55:31;98279.33;;;22.31;91.14
41102;BME280;26845;50.190;19.178;2023-07-13T05:57:57;98276.48;;;22.40;90.91
41102;BME280;26845;50.190;19.178;2023-07-13T06:00:23;98275.90;;;22.47;91.06
41102;BME280;26845;50.190;19.178;2023-07-13T06:02:52;98270.39;;;22.49;90.46
41102;BME280;26845;50.190;19.178;2023-07-13T06:05:20;98271.39;;;22.47;90.38
41102;BME280;26845;50.190;19.178;2023-07-13T06:07:46;98275.40;;;22.51;90.16
41102;BME280;26845;50.190;19.178;2023-07-13T06:10:16;98276.85;;;22.54;90.18
41102;BME280;26845;50.190;19.178;2023-07-13T06:12:41;98275.06;;;22.53;89.97
41102;BME280;26845;50.190;19.178;2023-07-13T06:15:07;98272.79;;;22.60;89.92
41102;BME280;26845;50.190;19.178;2023-07-13T06:17:33;98275.42;;;22.67;89.85
41102;BME280;26845;50.190;19.178;2023-07-13T06:19:59;98274.42;;;22.76;90.07
41102;BME280;26845;50.190;19.178;2023-07-13T06:23:04;98275.09;;;22.90;90.37
41102;BME280;26845;50.190;19.178;2023-07-13T06:26:10;98278.20;;;23.02;90.17
41102;BME280;26845;50.190;19.178;2023-07-13T06:29:07;98271.11;;;23.11;90.09
41102;BME280;26845;50.190;19.178;2023-07-13T06:31:40;98274.41;;;23.14;89.64
41102;BME280;26845;50.190;19.178;2023-07-13T06:34:14;98276.95;;;23.10;89.74
41102;BME280;26845;50.190;19.178;2023-07-13T06:36:47;98280.64;;;23.16;89.95
41102;BME280;26845;50.190;19.178;2023-07-13T06:39:21;98281.72;;;23.24;89.74
41102;BME280;26845;50.190;19.178;2023-07-13T06:41:54;98281.27;;;23.31;89.60
41102;BME280;26845;50.190;19.178;2023-07-13T06:44:20;98285.77;;;23.36;89.68
41102;BME280;26845;50.190;19.178;2023-07-13T06:47:07;98278.52;;;23.42;89.31
41102;BME280;26845;50.190;19.178;2023-07-13T06:49:35;98272.51;;;23.45;89.37
41102;BME280;26845;50.190;19.178;2023-07-13T06:52:00;98273.27;;;23.52;89.62
41102;BME280;26845;50.190;19.178;2023-07-13T06:54:50;98277.06;;;23.53;89.22
41102;BME280;26845;50.190;19.178;2023-07-13T06:57:35;98276.36;;;23.60;89.32
41102;BME280;26845;50.190;19.178;2023-07-13T07:00:21;98278.74;;;23.70;88.64
41102;BME280;26845;50.190;19.178;2023-07-13T07:02:48;98283.75;;;23.73;88.17
41102;BME280;26845;50.190;19.178;2023-07-13T07:05:24;98285.41;;;23.77;88.17
41102;BME280;26845;50.190;19.178;2023-07-13T07:07:51;98288.61;;;23.82;88.15
41102;BME280;26845;50.190;19.178;2023-07-13T07:10:18;98294.84;;;23.85;87.99
41102;BME280;26845;50.190;19.178;2023-07-13T07:12:44;98303.27;;;23.84;88.06
41102;BME280;26845;50.190;19.178;2023-07-13T07:15:10;98303.81;;;23.87;87.97
41102;BME280;26845;50.190;19.178;2023-07-13T07:17:36;98305.39;;;23.92;88.15
41102;BME280;26845;50.190;19.178;2023-07-13T07:20:01;98308.97;;;24.00;87.85
41102;BME280;26845;50.190;19.178;2023-07-13T07:22:27;98313.17;;;24.01;87.22
41102;BME280;26845;50.190;19.178;2023-07-13T07:24:52;98321.36;;;24.03;86.95
41102;BME280;26845;50.190;19.178;2023-07-13T07:27:18;98327.59;;;24.04;86.67
41102;BME280;26845;50.190;19.178;2023-07-13T07:29:44;98334.32;;;24.04;86.31
41102;BME280;26845;50.190;19.178;2023-07-13T07:32:09;98339.85;;;24.03;86.48
41102;BME280;26845;50.190;19.178;2023-07-13T07:34:35;98345.55;;;23.99;85.96
41102;BME280;26845;50.190;19.178;2023-07-13T07:37:00;98347.30;;;23.95;85.99
41102;BME280;26845;50.190;19.178;2023-07-13T07:39:26;98349.64;;;23.95;86.01
41102;BME280;26845;50.190;19.178;2023-07-13T07:41:52;98352.71;;;23.95;86.01
41102;BME280;26845;50.190;19.178;2023-07-13T07:44:17;98352.86;;;23.98;86.10
41102;BME280;26845;50.190;19.178;2023-07-13T07:46:43;98353.39;;;24.03;86.18
41102;BME280;26845;50.190;19.178;2023-07-13T07:49:08;98353.85;;;24.05;85.93
41102;BME280;26845;50.190;19.178;2023-07-13T07:51:33;98353.81;;;24.00;86.01
41102;BME280;26845;50.190;19.178;2023-07-13T07:53:59;98350.36;;;23.97;85.94
41102;BME280;26845;50.190;19.178;2023-07-13T07:56:25;98354.02;;;23.94;86.28
41102;BME280;26845;50.190;19.178;2023-07-13T07:58:50;98353.02;;;23.89;85.95
41102;BME280;26845;50.190;19.178;2023-07-13T08:01:16;98342.44;;;23.83;85.99
41102;BME280;26845;50.190;19.178;2023-07-13T08:03:41;98343.35;;;23.79;85.94
41102;BME280;26845;50.190;19.178;2023-07-13T08:06:06;98337.70;;;23.77;86.00
41102;BME280;26845;50.190;19.178;2023-07-13T08:08:32;98335.77;;;23.75;85.77
41102;BME280;26845;50.190;19.178;2023-07-13T08:14:06;98327.81;;;23.76;85.93
41102;BME280;26845;50.190;19.178;2023-07-13T08:16:31;98324.59;;;23.74;85.69
41102;BME280;26845;50.190;19.178;2023-07-13T08:18:57;98324.34;;;23.75;85.84
41102;BME280;26845;50.190;19.178;2023-07-13T08:21:23;98321.61;;;23.70;85.39
41102;BME280;26845;50.190;19.178;2023-07-13T08:23:49;98315.54;;;23.71;85.59
41102;BME280;26845;50.190;19.178;2023-07-13T08:26:14;98312.83;;;23.76;86.08
41102;BME280;26845;50.190;19.178;2023-07-13T08:28:40;98302.66;;;23.80;86.17
41102;BME280;26845;50.190;19.178;2023-07-13T08:31:06;98302.76;;;23.88;85.53
41102;BME280;26845;50.190;19.178;2023-07-13T08:33:34;98301.13;;;23.89;85.69
41102;BME280;26845;50.190;19.178;2023-07-13T08:36:01;98303.58;;;23.97;85.72
41102;BME280;26845;50.190;19.178;2023-07-13T08:38:26;98308.08;;;24.09;85.95
41102;BME280;26845;50.190;19.178;2023-07-13T08:40:52;98308.23;;;24.18;85.51
41102;BME280;26845;50.190;19.178;2023-07-13T08:43:20;98308.10;;;24.23;85.44
41102;BME280;26845;50.190;19.178;2023-07-13T08:45:52;98308.85;;;24.21;84.79
41102;BME280;26845;50.190;19.178;2023-07-13T08:48:30;98305.95;;;24.19;83.86
41102;BME280;26845;50.190;19.178;2023-07-13T08:50:58;98300.88;;;24.16;83.78
41102;BME280;26845;50.190;19.178;2023-07-13T08:53:28;98305.27;;;24.06;82.78
41102;BME280;26845;50.190;19.178;2023-07-13T08:55:57;98303.57;;;23.96;83.01
41102;BME280;26845;50.190;19.178;2023-07-13T08:58:23;98303.61;;;23.92;82.57
41102;BME280;26845;50.190;19.178;2023-07-13T09:00:59;98301.55;;;23.86;82.61
41102;BME280;26845;50.190;19.178;2023-07-13T09:03:30;98304.41;;;23.84;82.54
41102;BME280;26845;50.190;19.178;2023-07-13T09:06:01;98304.96;;;23.86;82.96
41102;BME280;26845;50.190;19.178;2023-07-13T09:08:33;98303.47;;;23.90;82.39
41102;BME280;26845;50.190;19.178;2023-07-13T09:11:12;98299.44;;;23.87;82.04
41102;BME280;26845;50.190;19.178;2023-07-13T09:16:27;98304.42;;;23.72;81.99
41102;BME280;26845;50.190;19.178;2023-07-13T09:18:54;98305.52;;;23.62;81.87
41102;BME280;26845;50.190;19.178;2023-07-13T09:21:25;98302.33;;;23.56;82.53
41102;BME280;26845;50.190;19.178;2023-07-13T09:23:56;98305.33;;;23.55;82.21
41102;BME280;26845;50.190;19.178;2023-07-13T09:26:24;98302.13;;;23.49;81.73
41102;BME280;26845;50.190;19.178;2023-07-13T09:28:51;98301.35;;;23.45;81.95
41102;BME280;26845;50.190;19.178;2023-07-13T09:31:26;98301.30;;;23.40;81.83
41102;BME280;26845;50.190;19.178;2023-07-13T09:33:54;98305.74;;;23.30;82.25
41102;BME280;26845;50.190;19.178;2023-07-13T09:36:21;98310.01;;;23.20;82.41
41102;BME280;26845;50.190;19.178;2023-07-13T09:38:58;98311.23;;;23.06;81.70
41102;BME280;26845;50.190;19.178;2023-07-13T09:44:17;98310.38;;;22.90;81.80
41102;BME280;26845;50.190;19.178;2023-07-13T09:46:44;98312.25;;;22.87;80.69
41102;BME280;26845;50.190;19.178;2023-07-13T09:49:10;98313.32;;;22.81;80.68
41102;BME280;26845;50.190;19.178;2023-07-13T09:51:37;98317.08;;;22.74;80.65
41102;BME280;26845;50.190;19.178;2023-07-13T09:54:03;98319.67;;;22.70;81.09
41102;BME280;26845;50.190;19.178;2023-07-13T09:56:28;98320.34;;;22.66;81.32
41102;BME280;26845;50.190;19.178;2023-07-13T09:58:57;98321.00;;;22.65;81.59
41102;BME280;26845;50.190;19.178;2023-07-13T10:01:34;98319.86;;;22.63;81.79
41102;BME280;26845;50.190;19.178;2023-07-13T10:03:59;98327.00;;;22.57;81.69
41102;BME280;26845;50.190;19.178;2023-07-13T10:06:25;98337.23;;;22.45;82.15
41102;BME280;26845;50.190;19.178;2023-07-13T10:08:55;98350.44;;;22.31;82.11
41102;BME280;26845;50.190;19.178;2023-07-13T10:11:26;98356.34;;;22.20;82.14
41102;BME280;26845;50.190;19.178;2023-07-13T10:13:58;98368.70;;;22.01;81.92
41102;BME280;26845;50.190;19.178;2023-07-13T10:16:25;98381.86;;;21.80;82.13
41102;BME280;26845;50.190;19.178;2023-07-13T10:18:54;98396.16;;;21.49;82.57
41102;BME280;26845;50.190;19.178;2023-07-13T10:21:22;98413.04;;;21.09;82.50
41102;BME280;26845;50.190;19.178;2023-07-13T10:23:50;98420.71;;;20.79;82.40
41102;BME280;26845;50.190;19.178;2023-07-13T10:26:21;98430.14;;;20.45;83.25
41102;BME280;26845;50.190;19.178;2023-07-13T10:28:51;98445.42;;;20.03;83.62
41102;BME280;26845;50.190;19.178;2023-07-13T10:31:18;98452.07;;;19.74;83.82
41102;BME280;26845;50.190;19.178;2023-07-13T10:33:45;98465.20;;;19.55;83.86
41102;BME280;26845;50.190;19.178;2023-07-13T10:36:23;98471.55;;;19.40;83.88
41102;BME280;26845;50.190;19.178;2023-07-13T10:38:52;98473.57;;;19.28;84.00
41102;BME280;26845;50.190;19.178;2023-07-13T10:41:20;98480.92;;;19.18;84.26
41102;BME280;26845;50.190;19.178;2023-07-13T10:43:51;98498.60;;;19.04;84.78
41102;BME280;26845;50.190;19.178;2023-07-13T10:46:22;98508.25;;;18.87;85.00
41102;BME280;26845;50.190;19.178;2023-07-13T10:49:09;98511.20;;;18.71;85.13
41102;BME280;26845;50.190;19.178;2023-07-13T10:51:37;98509.70;;;18.57;85.44
41102;BME280;26845;50.190;19.178;2023-07-13T10:57:17;98519.67;;;18.54;86.31
41102;BME280;26845;50.190;19.178;2023-07-13T10:59:43;98520.52;;;18.55;86.02
41102;BME280;26845;50.190;19.178;2023-07-13T11:02:26;98516.79;;;18.53;86.20
41102;BME280;26845;50.190;19.178;2023-07-13T11:04:54;98515.16;;;18.52;86.52
41102;BME280;26845;50.190;19.178;2023-07-13T11:07:27;98509.17;;;18.50;86.56
41102;BME280;26845;50.190;19.178;2023-07-13T11:10:30;98503.85;;;18.39;86.54
41102;BME280;26845;50.190;19.178;2023-07-13T11:12:55;98504.06;;;18.28;86.82
41102;BME280;26845;50.190;19.178;2023-07-13T11:15:29;98504.10;;;18.21;87.15
41102;BME280;26845;50.190;19.178;2023-07-13T11:18:21;98499.39;;;18.18;87.59
41102;BME280;26845;50.190;19.178;2023-07-13T11:20:49;98500.05;;;18.23;87.99
41102;BME280;26845;50.190;19.178;2023-07-13T11:25:44;98506.05;;;18.18;87.84
41102;BME280;26845;50.190;19.178;2023-07-13T11:28:15;98510.63;;;18.18;87.90
41102;BME280;26845;50.190;19.178;2023-07-13T11:30:49;98511.23;;;18.19;88.05
41102;BME280;26845;50.190;19.178;2023-07-13T11:33:17;98513.05;;;18.22;88.35
41102;BME280;26845;50.190;19.178;2023-07-13T11:38:38;98517.59;;;18.25;88.79
41102;BME280;26845;50.190;19.178;2023-07-13T11:41:06;98518.29;;;18.28;88.83
41102;BME280;26845;50.190;19.178;2023-07-13T11:43:33;98516.50;;;18.27;89.02
41102;BME280;26845;50.190;19.178;2023-07-13T11:46:11;98518.42;;;18.27;89.12
41102;BME280;26845;50.190;19.178;2023-07-13T11:48:37;98515.39;;;18.33;89.39
41102;BME280;26845;50.190;19.178;2023-07-13T11:51:04;98516.42;;;18.36;89.55
41102;BME280;26845;50.190;19.178;2023-07-13T11:53:38;98519.95;;;18.40;89.76
41102;BME280;26845;50.190;19.178;2023-07-13T11:56:04;98516.56;;;18.50;90.11
41102;BME280;26845;50.190;19.178;2023-07-13T11:58:42;98514.48;;;18.60;90.12
41102;BME280;26845;50.190;19.178;2023-07-13T12:01:20;98514.57;;;18.66;89.90
41102;BME280;26845;50.190;19.178;2023-07-13T12:04:02;98517.55;;;18.66;89.91
41102;BME280;26845;50.190;19.178;2023-07-13T12:06:34;98519.04;;;18.68;90.22
41102;BME280;26845;50.190;19.178;2023-07-13T12:09:11;98516.38;;;18.76;90.61
41102;BME280;26845;50.190;19.178;2023-07-13T12:11:41;98513.86;;;18.85;90.58
41102;BME280;26845;50.190;19.178;2023-07-13T12:14:17;98516.60;;;18.97;90.90
41102;BME280;26845;50.190;19.178;2023-07-13T12:16:43;98504.31;;;19.09;90.92
41102;BME280;26845;50.190;19.178;2023-07-13T12:19:29;98496.73;;;19.15;90.66
41102;BME280;26845;50.190;19.178;2023-07-13T12:21:57;98501.08;;;19.13;90.67
41102;BME280;26845;50.190;19.178;2023-07-13T12:24:28;98506.55;;;19.20;91.10
41102;BME280;26845;50.190;19.178;2023-07-13T12:26:58;98510.48;;;19.31;90.94
41102;BME280;26845;50.190;19.178;2023-07-13T12:29:24;98512.58;;;19.37;90.87
41102;BME280;26845;50.190;19.178;2023-07-13T12:31:50;98516.42;;;19.49;91.35
41102;BME280;26845;50.190;19.178;2023-07-13T12:34:32;98513.03;;;19.65;91.48
41102;BME280;26845;50.190;19.178;2023-07-13T12:37:01;98515.48;;;19.74;90.67
41102;BME280;26845;50.190;19.178;2023-07-13T12:42:21;98510.05;;;20.01;90.72
41102;BME280;26845;50.190;19.178;2023-07-13T12:45:18;98511.02;;;20.18;90.85
41102;BME280;26845;50.190;19.178;2023-07-13T12:48:22;98514.90;;;20.27;89.88
41102;BME280;26845;50.190;19.178;2023-07-13T12:50:49;98513.63;;;20.29;89.70
41102;BME280;26845;50.190;19.178;2023-07-13T12:53:22;98513.30;;;20.37;89.95
41102;BME280;26845;50.190;19.178;2023-07-13T12:56:27;98513.17;;;20.49;89.58
41102;BME280;26845;50.190;19.178;2023-07-13T12:59:00;98513.66;;;20.57;89.51
41102;BME280;26845;50.190;19.178;2023-07-13T13:01:27;98514.59;;;20.62;89.13
41102;BME280;26845;50.190;19.178;2023-07-13T13:03:53;98517.13;;;20.57;88.54
41102;BME280;26845;50.190;19.178;2023-07-13T13:06:23;98519.80;;;20.51;88.46
41102;BME280;26845;50.190;19.178;2023-07-13T13:08:56;98525.68;;;20.50;88.38
41102;BME280;26845;50.190;19.178;2023-07-13T13:11:24;98529.59;;;20.61;89.15
41102;BME280;26845;50.190;19.178;2023-07-13T13:13:51;98532.89;;;20.72;88.62
41102;BME280;26845;50.190;19.178;2023-07-13T13:16:30;98535.73;;;20.72;88.62
41102;BME280;26845;50.190;19.178;2023-07-13T13:19:31;98541.30;;;20.56;87.69
41102;BME280;26845;50.190;19.178;2023-07-13T13:22:39;98546.88;;;20.33;87.94